createdAt,value
2022-11-18T00:00:09.685Z,999.48
2022-11-18T00:01:09.685Z,999.47
2022-11-18T00:02:09.715Z,999.47
2022-11-18T00:03:09.652Z,999.48
2022-11-18T00:04:09.672Z,999.44
2022-11-18T00:05:09.631Z,999.45
2022-11-18T00:06:09.617Z,999.45
2022-11-18T00:07:09.637Z,999.45
2022-11-18T00:08:09.611Z,999.40
2022-11-18T00:09:09.584Z,999.43
2022-11-18T00:10:09.591Z,999.38
2022-11-18T00:11:09.569Z,999.40
2022-11-18T00:12:09.550Z,999.34
2022-11-18T00:13:09.541Z,999.33
2022-11-18T00:14:09.532Z,999.32
2022-11-18T00:15:09.520Z,999.31
2022-11-18T00:16:09.513Z,999.27
2022-11-18T00:17:09.496Z,999.25
2022-11-18T00:18:09.486Z,999.29
2022-11-18T00:19:09.473Z,999.29
2022-11-18T00:20:09.461Z,999.29
2022-11-18T00:21:09.449Z,999.30
2022-11-18T00:22:09.446Z,999.31
2022-11-18T00:23:09.427Z,999.30
2022-11-18T00:24:09.434Z,999.31
2022-11-18T00:25:09.405Z,999.27
2022-11-18T00:26:09.394Z,999.33
2022-11-18T00:27:09.399Z,999.32
2022-11-18T00:28:09.406Z,999.34
2022-11-18T00:29:09.361Z,999.30
2022-11-18T00:30:09.353Z,999.33
2022-11-18T00:31:09.345Z,999.34
2022-11-18T00:32:09.335Z,999.29
2022-11-18T00:33:09.315Z,999.28
2022-11-18T00:34:09.313Z,999.28
2022-11-18T00:35:09.295Z,999.30
2022-11-18T00:36:09.288Z,999.33
2022-11-18T00:37:09.273Z,999.39
2022-11-18T00:38:09.260Z,999.41
2022-11-18T00:39:09.249Z,999.39
2022-11-18T00:40:09.386Z,999.44
2022-11-18T00:41:09.230Z,999.44
2022-11-18T00:42:09.216Z,999.40
2022-11-18T00:43:09.204Z,999.47
2022-11-18T00:44:09.718Z,999.39
2022-11-18T00:45:09.182Z,999.42
2022-11-18T00:46:09.176Z,999.39
2022-11-18T00:47:09.160Z,999.36
2022-11-18T00:48:09.149Z,999.40
2022-11-18T00:49:09.136Z,999.38
2022-11-18T00:50:09.125Z,999.37
2022-11-18T00:51:09.115Z,999.35
2022-11-18T00:52:09.111Z,999.35
2022-11-18T00:53:09.094Z,999.36
2022-11-18T00:54:09.081Z,999.41
2022-11-18T00:55:09.068Z,999.42
2022-11-18T00:56:09.078Z,999.42
2022-11-18T00:57:09.045Z,999.43
2022-11-18T00:58:09.055Z,999.43
2022-11-18T00:59:09.027Z,999.44
2022-11-18T01:00:09.014Z,999.44
2022-11-18T01:01:09.071Z,999.41
2022-11-18T01:02:08.992Z,999.40
2022-11-18T01:03:08.981Z,999.39
2022-11-18T01:04:08.999Z,999.39
2022-11-18T01:05:08.959Z,999.36
2022-11-18T01:06:08.946Z,999.37
2022-11-18T01:07:09.039Z,999.36
2022-11-18T01:08:08.925Z,999.36
2022-11-18T01:09:08.912Z,999.42
2022-11-18T01:10:08.918Z,999.43
2022-11-18T01:11:08.890Z,999.42
2022-11-18T01:12:08.895Z,999.43
2022-11-18T01:13:08.868Z,999.48
2022-11-18T01:14:08.856Z,999.50
2022-11-18T01:15:08.847Z,999.46
2022-11-18T01:16:08.841Z,999.44
2022-11-18T01:17:08.824Z,999.51
2022-11-18T01:18:08.813Z,999.52
2022-11-18T01:19:08.801Z,999.54
2022-11-18T01:20:08.790Z,999.51
2022-11-18T01:21:08.779Z,999.51
2022-11-18T01:22:08.778Z,999.53
2022-11-18T01:23:08.756Z,999.52
2022-11-18T01:24:08.747Z,999.54
2022-11-18T01:25:08.735Z,999.56
2022-11-18T01:26:08.724Z,999.50
2022-11-18T01:27:08.729Z,999.51
2022-11-18T01:28:08.726Z,999.52
2022-11-18T01:29:08.702Z,999.54
2022-11-18T01:30:08.679Z,999.48
2022-11-18T01:31:08.669Z,999.52
2022-11-18T01:32:24.053Z,999.52
2022-11-18T01:33:09.651Z,999.49
2022-11-18T01:34:08.634Z,999.57
2022-11-18T01:35:08.642Z,999.58
2022-11-18T01:36:08.613Z,999.55
2022-11-18T01:37:08.601Z,999.61
2022-11-18T01:38:08.589Z,999.64
2022-11-18T01:39:08.607Z,999.60
2022-11-18T01:40:08.567Z,999.59
2022-11-18T01:41:08.567Z,999.62
2022-11-18T01:42:08.567Z,999.60
2022-11-18T01:43:08.534Z,999.60
2022-11-18T01:44:08.539Z,999.59
2022-11-18T01:45:08.517Z,999.65
2022-11-18T01:46:08.501Z,999.65
2022-11-18T01:47:08.489Z,999.66
2022-11-18T01:48:08.478Z,999.64
2022-11-18T01:49:08.467Z,999.63
2022-11-18T01:50:08.455Z,999.61
2022-11-18T01:51:08.459Z,999.56
2022-11-18T01:52:08.433Z,999.57
2022-11-18T01:53:08.420Z,999.61
2022-11-18T01:54:08.411Z,999.62
2022-11-18T01:55:08.399Z,999.57
2022-11-18T01:56:08.388Z,999.57
2022-11-18T01:57:08.387Z,999.56
2022-11-18T01:58:08.366Z,999.57
2022-11-18T01:59:08.353Z,999.54
2022-11-18T02:00:08.360Z,999.61
2022-11-18T02:01:08.395Z,999.54
2022-11-18T02:02:08.324Z,999.60
2022-11-18T02:03:08.331Z,999.54
2022-11-18T02:04:08.298Z,999.55
2022-11-18T02:05:08.288Z,999.54
2022-11-18T02:06:08.276Z,999.56
2022-11-18T02:07:08.336Z,999.60
2022-11-18T02:08:08.254Z,999.60
2022-11-18T02:09:08.258Z,999.58
2022-11-18T02:10:08.231Z,999.54
2022-11-18T02:11:08.220Z,999.56
2022-11-18T02:12:08.346Z,999.54
2022-11-18T02:13:08.197Z,999.50
2022-11-18T02:14:08.191Z,999.54
2022-11-18T02:15:08.209Z,999.55
2022-11-18T02:16:08.184Z,999.55
2022-11-18T02:17:08.153Z,999.51
2022-11-18T02:18:08.142Z,999.51
2022-11-18T02:19:08.132Z,999.53
2022-11-18T02:20:08.120Z,999.51
2022-11-18T02:21:08.115Z,999.55
2022-11-18T02:22:08.098Z,999.52
2022-11-18T02:23:08.087Z,999.53
2022-11-18T02:24:08.080Z,999.55
2022-11-18T02:25:08.064Z,999.58
2022-11-18T02:26:08.055Z,999.58
2022-11-18T02:27:08.049Z,999.58
2022-11-18T02:28:08.032Z,999.58
2022-11-18T02:29:08.020Z,999.63
2022-11-18T02:30:08.009Z,999.61
2022-11-18T02:31:07.998Z,999.65
2022-11-18T02:32:08.003Z,999.63
2022-11-18T02:33:07.999Z,999.66
2022-11-18T02:34:07.965Z,999.63
2022-11-18T02:35:07.954Z,999.63
2022-11-18T02:36:07.943Z,999.68
2022-11-18T02:37:07.932Z,999.67
2022-11-18T02:38:07.920Z,999.67
2022-11-18T02:39:07.927Z,999.68
2022-11-18T02:40:07.905Z,999.67
2022-11-18T02:41:07.885Z,999.67
2022-11-18T02:42:07.890Z,999.67
2022-11-18T02:43:07.863Z,999.71
2022-11-18T02:44:07.852Z,999.72
2022-11-18T02:45:07.856Z,999.68
2022-11-18T02:46:07.830Z,999.71
2022-11-18T02:47:07.821Z,999.69
2022-11-18T02:48:07.827Z,999.74
2022-11-18T02:49:07.798Z,999.71
2022-11-18T02:50:07.786Z,999.69
2022-11-18T02:51:07.781Z,999.68
2022-11-18T02:52:07.770Z,999.65
2022-11-18T02:53:07.752Z,999.72
2022-11-18T02:54:07.742Z,999.66
2022-11-18T02:55:07.739Z,999.68
2022-11-18T02:56:07.721Z,999.72
2022-11-18T02:57:07.738Z,999.72
2022-11-18T02:58:07.696Z,999.71
2022-11-18T02:59:07.685Z,999.72
2022-11-18T03:00:07.675Z,999.73
2022-11-18T03:01:07.727Z,999.73
2022-11-18T03:02:07.653Z,999.74
2022-11-18T03:03:07.647Z,999.75
2022-11-18T03:04:07.652Z,999.73
2022-11-18T03:05:07.619Z,999.73
2022-11-18T03:06:07.614Z,999.71
2022-11-18T03:07:07.628Z,999.73
2022-11-18T03:08:07.586Z,999.66
2022-11-18T03:09:07.580Z,999.70
2022-11-18T03:10:07.563Z,999.65
2022-11-18T03:11:07.552Z,999.67
2022-11-18T03:12:07.541Z,999.65
2022-11-18T03:13:07.530Z,999.67
2022-11-18T03:14:07.519Z,999.61
2022-11-18T03:15:07.528Z,999.64
2022-11-18T03:16:07.496Z,999.65
2022-11-18T03:17:07.485Z,999.63
2022-11-18T03:18:07.476Z,999.64
2022-11-18T03:19:07.463Z,999.61
2022-11-18T03:20:07.533Z,999.60
2022-11-18T03:21:07.447Z,999.64
2022-11-18T03:22:07.429Z,999.67
2022-11-18T03:23:07.419Z,999.65
2022-11-18T03:24:07.407Z,999.70
2022-11-18T03:25:07.397Z,999.69
2022-11-18T03:26:07.384Z,999.70
2022-11-18T03:27:07.383Z,999.72
2022-11-18T03:28:07.362Z,999.73
2022-11-18T03:29:07.350Z,999.76
2022-11-18T03:30:07.343Z,999.73
2022-11-18T03:31:07.329Z,999.75
2022-11-18T03:32:07.317Z,999.78
2022-11-18T03:33:07.352Z,999.80
2022-11-18T03:34:07.298Z,999.81
2022-11-18T03:35:07.285Z,999.83
2022-11-18T03:36:07.291Z,999.79
2022-11-18T03:37:10.484Z,999.82
2022-11-18T03:38:07.252Z,999.85
2022-11-18T03:39:07.246Z,999.87
2022-11-18T03:40:07.230Z,999.80
2022-11-18T03:41:07.219Z,999.81
2022-11-18T03:42:07.208Z,999.84
2022-11-18T03:43:07.197Z,999.80
2022-11-18T03:44:07.185Z,999.81
2022-11-18T03:45:07.189Z,999.84
2022-11-18T03:46:07.163Z,999.82
2022-11-18T03:47:07.153Z,999.86
2022-11-18T03:48:07.143Z,999.87
2022-11-18T03:49:07.130Z,999.93
2022-11-18T03:50:07.117Z,999.93
2022-11-18T03:51:07.127Z,999.90
2022-11-18T03:52:07.161Z,999.92
2022-11-18T03:53:07.085Z,999.91
2022-11-18T03:54:07.073Z,999.93
2022-11-18T03:55:07.062Z,999.99
2022-11-18T03:56:07.050Z,999.93
2022-11-18T03:57:07.048Z,999.99
2022-11-18T03:58:07.031Z,1000.01
2022-11-18T03:59:07.017Z,999.98
2022-11-18T04:00:07.005Z,1000.07
2022-11-18T04:01:06.995Z,1000.00
2022-11-18T04:02:07.051Z,1000.09
2022-11-18T04:03:06.981Z,1000.07
2022-11-18T04:04:06.960Z,1000.05
2022-11-18T04:05:06.953Z,1000.10
2022-11-18T04:06:06.938Z,1000.10
2022-11-18T04:07:07.016Z,1000.06
2022-11-18T04:08:07.049Z,1000.12
2022-11-18T04:09:06.937Z,1000.17
2022-11-18T04:10:06.894Z,1000.15
2022-11-18T04:11:06.883Z,1000.17
2022-11-18T04:12:06.871Z,1000.18
2022-11-18T04:13:07.124Z,1000.13
2022-11-18T04:14:06.849Z,1000.13
2022-11-18T04:15:06.859Z,1000.15
2022-11-18T04:16:06.827Z,1000.16
2022-11-18T04:17:06.816Z,1000.16
2022-11-18T04:18:06.805Z,1000.20
2022-11-18T04:19:06.793Z,1000.16
2022-11-18T04:20:06.788Z,1000.19
2022-11-18T04:21:06.787Z,1000.15
2022-11-18T04:22:06.761Z,1000.20
2022-11-18T04:23:06.753Z,1000.13
2022-11-18T04:24:06.755Z,1000.18
2022-11-18T04:25:06.726Z,1000.17
2022-11-18T04:26:06.716Z,1000.18
2022-11-18T04:27:06.734Z,1000.18
2022-11-18T04:28:06.694Z,1000.20
2022-11-18T04:29:06.682Z,1000.21
2022-11-18T04:30:06.672Z,1000.23
2022-11-18T04:31:06.660Z,1000.24
2022-11-18T04:32:06.648Z,1000.29
2022-11-18T04:33:06.644Z,1000.22
2022-11-18T04:34:06.627Z,1000.26
2022-11-18T04:35:06.615Z,1000.27
2022-11-18T04:36:06.603Z,1000.25
2022-11-18T04:37:06.591Z,1000.25
2022-11-18T04:38:06.580Z,1000.29
2022-11-18T04:39:06.591Z,1000.29
2022-11-18T04:40:06.575Z,1000.31
2022-11-18T04:41:06.547Z,1000.29
2022-11-18T04:42:06.536Z,1000.30
2022-11-18T04:43:06.525Z,1000.32
2022-11-18T04:44:06.514Z,1000.35
2022-11-18T04:45:06.531Z,1000.32
2022-11-18T04:46:06.491Z,1000.34
2022-11-18T04:47:06.480Z,1000.37
2022-11-18T04:48:06.469Z,1000.39
2022-11-18T04:49:06.457Z,1000.39
2022-11-18T04:50:06.470Z,1000.42
2022-11-18T04:51:06.459Z,1000.41
2022-11-18T04:52:06.427Z,1000.39
2022-11-18T04:53:06.420Z,1000.45
2022-11-18T04:54:06.405Z,1000.44
2022-11-18T04:55:06.408Z,1000.43
2022-11-18T04:56:06.406Z,1000.46
2022-11-18T04:57:06.374Z,1000.46
2022-11-18T04:58:06.364Z,1000.43
2022-11-18T04:59:06.359Z,1000.48
2022-11-18T05:00:06.335Z,1000.50
2022-11-18T05:01:06.413Z,1000.48
2022-11-18T05:02:06.315Z,1000.49
2022-11-18T05:03:06.308Z,1000.48
2022-11-18T05:04:06.290Z,1000.45
2022-11-18T05:05:06.281Z,1000.45
2022-11-18T05:06:06.274Z,1000.48
2022-11-18T05:07:06.387Z,1000.49
2022-11-18T05:08:06.247Z,1000.50
2022-11-18T05:09:06.249Z,1000.54
2022-11-18T05:10:06.224Z,1000.51
2022-11-18T05:11:06.212Z,1000.53
2022-11-18T05:12:06.302Z,1000.53
2022-11-18T05:13:06.191Z,1000.56
2022-11-18T05:14:06.180Z,1000.62
2022-11-18T05:15:06.199Z,1000.61
2022-11-18T05:16:06.156Z,1000.65
2022-11-18T05:17:06.144Z,1000.63
2022-11-18T05:18:06.138Z,1000.66
2022-11-18T05:19:06.121Z,1000.63
2022-11-18T05:20:06.112Z,1000.65
2022-11-18T05:21:06.118Z,1000.66
2022-11-18T05:22:06.088Z,1000.64
2022-11-18T05:23:06.077Z,1000.62
2022-11-18T05:24:06.068Z,1000.61
2022-11-18T05:25:06.056Z,1000.66
2022-11-18T05:26:06.056Z,1000.63
2022-11-18T05:27:06.049Z,1000.60
2022-11-18T05:28:06.042Z,1000.64
2022-11-18T05:29:06.010Z,1000.62
2022-11-18T05:30:06.018Z,1000.64
2022-11-18T05:31:06.009Z,1000.64
2022-11-18T05:32:05.980Z,1000.67
2022-11-18T05:33:05.987Z,1000.68
2022-11-18T05:34:05.953Z,1000.69
2022-11-18T05:35:05.943Z,1000.67
2022-11-18T05:36:05.932Z,1000.66
2022-11-18T05:37:05.923Z,1000.71
2022-11-18T05:38:05.925Z,1000.67
2022-11-18T05:39:05.922Z,1000.76
2022-11-18T05:40:05.887Z,1000.76
2022-11-18T05:41:05.881Z,1000.77
2022-11-18T05:42:05.866Z,1000.78
2022-11-18T05:43:05.854Z,1000.81
2022-11-18T05:44:05.865Z,1000.83
2022-11-18T05:45:05.852Z,1000.84
2022-11-18T05:46:05.829Z,1000.86
2022-11-18T05:47:05.809Z,1000.88
2022-11-18T05:48:05.799Z,1000.90
2022-11-18T05:49:05.787Z,1000.92
2022-11-18T05:50:05.776Z,1000.88
2022-11-18T05:51:05.801Z,1000.85
2022-11-18T05:52:05.754Z,1000.93
2022-11-18T05:53:05.742Z,1000.93
2022-11-18T05:54:05.730Z,1000.95
2022-11-18T05:55:05.719Z,1000.94
2022-11-18T05:56:05.708Z,1000.96
2022-11-18T05:57:05.703Z,1000.98
2022-11-18T05:58:05.686Z,1000.99
2022-11-18T05:59:05.674Z,1001.03
2022-11-18T06:00:05.682Z,1001.01
2022-11-18T06:01:05.653Z,1001.04
2022-11-18T06:02:05.649Z,1001.03
2022-11-18T06:03:05.694Z,1001.09
2022-11-18T06:04:05.619Z,1001.06
2022-11-18T06:05:05.610Z,1001.12
2022-11-18T06:06:05.596Z,1001.13
2022-11-18T06:07:05.651Z,1001.13
2022-11-18T06:08:05.573Z,1001.13
2022-11-18T06:09:05.590Z,1001.14
2022-11-18T06:10:06.177Z,1001.17
2022-11-18T06:11:05.541Z,1001.12
2022-11-18T06:12:05.529Z,1001.12
2022-11-18T06:13:05.518Z,1001.15
2022-11-18T06:14:05.507Z,1001.13
2022-11-18T06:15:05.516Z,1001.09
2022-11-18T06:16:05.501Z,1001.14
2022-11-18T06:17:05.473Z,1001.18
2022-11-18T06:18:05.461Z,1001.21
2022-11-18T06:19:05.450Z,1001.20
2022-11-18T06:20:05.440Z,1001.27
2022-11-18T06:21:05.438Z,1001.30
2022-11-18T06:22:05.417Z,1001.30
2022-11-18T06:23:05.410Z,1001.32
2022-11-18T06:24:05.395Z,1001.37
2022-11-18T06:25:05.383Z,1001.40
2022-11-18T06:26:05.378Z,1001.38
2022-11-18T06:27:05.391Z,1001.40
2022-11-18T06:28:05.351Z,1001.39
2022-11-18T06:29:05.338Z,1001.46
2022-11-18T06:30:05.342Z,1001.44
2022-11-18T06:31:05.317Z,1001.47
2022-11-18T06:32:05.332Z,1001.45
2022-11-18T06:33:05.315Z,1001.39
2022-11-18T06:34:05.285Z,1001.46
2022-11-18T06:35:05.272Z,1001.45
2022-11-18T06:36:05.261Z,1001.45
2022-11-18T06:37:05.251Z,1001.47
2022-11-18T06:38:05.239Z,1001.52
2022-11-18T06:39:05.249Z,1001.48
2022-11-18T06:40:05.215Z,1001.52
2022-11-18T06:41:05.207Z,1001.54
2022-11-18T06:42:05.195Z,1001.69
2022-11-18T06:43:05.182Z,1001.63
2022-11-18T06:44:05.172Z,1001.71
2022-11-18T06:45:05.284Z,1001.64
2022-11-18T06:46:09.057Z,1001.68
2022-11-18T06:47:05.139Z,1001.61
2022-11-18T06:48:05.141Z,1001.72
2022-11-18T06:49:05.117Z,1001.67
2022-11-18T06:50:05.106Z,1001.66
2022-11-18T06:51:05.101Z,1001.75
2022-11-18T06:52:05.082Z,1001.67
2022-11-18T06:53:05.072Z,1001.68
2022-11-18T06:54:10.401Z,1001.71
2022-11-18T06:55:06.047Z,1001.69
2022-11-18T06:56:05.041Z,1001.73
2022-11-18T06:57:05.034Z,1001.77
2022-11-18T06:58:05.014Z,1001.73
2022-11-18T06:59:05.007Z,1001.84
2022-11-18T07:00:04.993Z,1001.80
2022-11-18T07:01:05.102Z,1001.92
2022-11-18T07:02:04.970Z,1001.87
2022-11-18T07:03:04.965Z,1001.92
2022-11-18T07:04:04.968Z,1001.84
2022-11-18T07:05:04.937Z,1001.85
2022-11-18T07:06:04.926Z,1001.86
2022-11-18T07:07:04.964Z,1001.95
2022-11-18T07:08:04.904Z,1001.92
2022-11-18T07:09:04.903Z,1001.86
2022-11-18T07:10:04.883Z,1001.91
2022-11-18T07:11:04.871Z,1001.89
2022-11-18T07:12:04.859Z,1001.89
2022-11-18T07:13:04.848Z,1001.82
2022-11-18T07:14:04.839Z,1001.87
2022-11-18T07:15:04.831Z,1001.83
2022-11-18T07:16:04.814Z,1001.84
2022-11-18T07:17:04.805Z,1001.84
2022-11-18T07:18:04.793Z,1001.83
2022-11-18T07:19:04.781Z,1001.86
2022-11-18T07:20:04.792Z,1001.90
2022-11-18T07:21:04.775Z,1001.91
2022-11-18T07:22:04.750Z,1001.98
2022-11-18T07:23:04.737Z,1002.01
2022-11-18T07:24:04.725Z,1002.01
2022-11-18T07:25:04.715Z,1001.97
2022-11-18T07:26:04.704Z,1001.99
2022-11-18T07:27:04.698Z,1002.04
2022-11-18T07:28:04.682Z,1001.97
2022-11-18T07:29:04.671Z,1001.98
2022-11-18T07:30:04.659Z,1002.03
2022-11-18T07:31:04.648Z,1002.03
2022-11-18T07:32:04.636Z,1002.01
2022-11-18T07:33:04.633Z,1002.06
2022-11-18T07:34:04.614Z,1002.05
2022-11-18T07:35:04.604Z,1002.09
2022-11-18T07:36:04.612Z,1002.05
2022-11-18T07:37:04.580Z,1002.04
2022-11-18T07:38:04.572Z,1002.08
2022-11-18T07:39:04.563Z,1002.06
2022-11-18T07:40:04.548Z,1002.03
2022-11-18T07:41:04.536Z,1002.07
2022-11-18T07:42:04.526Z,1002.03
2022-11-18T07:43:04.515Z,1002.08
2022-11-18T07:44:04.502Z,1002.09
2022-11-18T07:45:04.497Z,1002.06
2022-11-18T07:46:04.487Z,1002.06
2022-11-18T07:47:04.507Z,1002.04
2022-11-18T07:48:04.468Z,1002.12
2022-11-18T07:49:04.445Z,1002.10
2022-11-18T07:50:04.435Z,1002.11
2022-11-18T07:51:04.444Z,1002.15
2022-11-18T07:52:04.434Z,1002.15
2022-11-18T07:53:04.402Z,1002.14
2022-11-18T07:54:04.397Z,1002.20
2022-11-18T07:55:04.382Z,1002.25
2022-11-18T07:56:04.382Z,1002.24
2022-11-18T07:57:04.367Z,1002.22
2022-11-18T07:58:04.345Z,1002.18
2022-11-18T07:59:04.334Z,1002.25
2022-11-18T08:00:04.324Z,1002.18
2022-11-18T08:01:04.371Z,1002.22
2022-11-18T08:02:04.365Z,1002.21
2022-11-18T08:03:04.301Z,1002.22
2022-11-18T08:04:04.281Z,1002.26
2022-11-18T08:05:04.343Z,1002.35
2022-11-18T08:06:04.257Z,1002.32
2022-11-18T08:07:04.359Z,1002.31
2022-11-18T08:08:04.259Z,1002.32
2022-11-18T08:09:04.238Z,1002.32
2022-11-18T08:10:04.211Z,1002.36
2022-11-18T08:11:04.202Z,1002.37
2022-11-18T08:12:04.188Z,1002.33
2022-11-18T08:13:04.178Z,1002.36
2022-11-18T08:14:04.168Z,1002.37
2022-11-18T08:15:04.164Z,1002.45
2022-11-18T08:16:04.146Z,1002.45
2022-11-18T08:17:04.133Z,1002.48
2022-11-18T08:18:04.122Z,1002.48
2022-11-18T08:19:04.109Z,1002.40
2022-11-18T08:20:04.104Z,1002.45
2022-11-18T08:21:04.106Z,1002.49
2022-11-18T08:22:04.080Z,1002.46
2022-11-18T08:23:04.075Z,1002.50
2022-11-18T08:24:04.189Z,1002.43
2022-11-18T08:25:04.046Z,1002.43
2022-11-18T08:26:04.032Z,1002.48
2022-11-18T08:27:04.029Z,1002.46
2022-11-18T08:28:04.010Z,1002.48
2022-11-18T08:29:04.000Z,1002.44
2022-11-18T08:30:03.986Z,1002.49
2022-11-18T08:31:03.976Z,1002.46
2022-11-18T08:32:03.966Z,1002.62
2022-11-18T08:33:03.960Z,1002.45
2022-11-18T08:34:03.943Z,1002.52
2022-11-18T08:35:09.613Z,1002.57
2022-11-18T08:36:04.938Z,1002.52
2022-11-18T08:37:03.909Z,1002.59
2022-11-18T08:38:03.898Z,1002.63
2022-11-18T08:39:03.904Z,1002.55
2022-11-18T08:40:03.899Z,1002.55
2022-11-18T08:41:03.864Z,1002.56
2022-11-18T08:42:03.853Z,1002.55
2022-11-18T08:43:03.843Z,1002.58
2022-11-18T08:44:03.834Z,1002.68
2022-11-18T08:45:03.836Z,1002.65
2022-11-18T08:46:03.808Z,1002.66
2022-11-18T08:47:03.797Z,1002.71
2022-11-18T08:48:03.789Z,1002.71
2022-11-18T08:49:03.777Z,1002.77
2022-11-18T08:50:03.769Z,1002.75
2022-11-18T08:51:03.784Z,1002.75
2022-11-18T08:52:03.747Z,1002.74
2022-11-18T08:53:03.734Z,1002.78
2022-11-18T08:54:03.723Z,1002.81
2022-11-18T08:55:03.707Z,1002.81
2022-11-18T08:56:03.716Z,1002.80
2022-11-18T08:57:03.708Z,1002.78
2022-11-18T08:58:03.676Z,1002.85
2022-11-18T08:59:03.663Z,1003.01
2022-11-18T09:00:03.651Z,1002.87
2022-11-18T09:01:03.695Z,1003.01
2022-11-18T09:02:03.696Z,1002.90
2022-11-18T09:03:03.656Z,1002.95
2022-11-18T09:04:03.607Z,1002.96
2022-11-18T09:05:03.597Z,1002.98
2022-11-18T09:06:03.591Z,1003.01
2022-11-18T09:07:03.628Z,1003.07
2022-11-18T09:08:03.564Z,1003.08
2022-11-18T09:09:06.602Z,1003.09
2022-11-18T09:10:03.541Z,1003.15
2022-11-18T09:11:03.530Z,1003.07
2022-11-18T09:12:03.540Z,1003.20
2022-11-18T09:13:33.354Z,1003.04
2022-11-18T09:15:13.877Z,1003.16
2022-11-18T09:16:04.473Z,1003.16
2022-11-18T09:17:03.463Z,1003.27
2022-11-18T09:18:03.450Z,1003.18
2022-11-18T09:19:24.432Z,1003.23
2022-11-18T09:20:04.433Z,1003.25
2022-11-18T09:21:03.421Z,1003.24
2022-11-18T09:22:03.406Z,1003.20
2022-11-18T09:23:03.398Z,1003.30
2022-11-18T09:24:03.386Z,1003.31
2022-11-18T09:25:03.372Z,1003.23
2022-11-18T09:26:03.406Z,1003.37
2022-11-18T09:27:03.366Z,1003.38
2022-11-18T09:28:03.360Z,1003.37
2022-11-18T09:29:03.329Z,1003.41
2022-11-18T09:30:03.318Z,1003.41
2022-11-18T09:31:03.306Z,1003.40
2022-11-18T09:32:03.309Z,1003.40
2022-11-18T09:33:03.282Z,1003.44
2022-11-18T09:34:03.272Z,1003.42
2022-11-18T09:35:03.282Z,1003.45
2022-11-18T09:36:03.249Z,1003.49
2022-11-18T09:37:03.239Z,1003.55
2022-11-18T09:38:03.243Z,1003.56
2022-11-18T09:39:03.216Z,1003.66
2022-11-18T09:40:03.204Z,1003.55
2022-11-18T09:41:03.196Z,1003.53
2022-11-18T09:42:03.183Z,1003.51
2022-11-18T09:43:03.171Z,1003.71
2022-11-18T09:44:03.199Z,1003.53
2022-11-18T09:45:04.530Z,1003.60
2022-11-18T09:46:03.177Z,1003.58
2022-11-18T09:47:03.128Z,1003.64
2022-11-18T09:48:03.116Z,1003.61
2022-11-18T09:49:03.105Z,1003.58
2022-11-18T09:50:20.435Z,1003.60
2022-11-18T09:51:04.082Z,1003.61
2022-11-18T09:52:03.075Z,1003.64
2022-11-18T09:53:03.063Z,1003.64
2022-11-18T09:54:03.050Z,1003.73
2022-11-18T09:55:03.039Z,1003.63
2022-11-18T09:56:03.057Z,1003.76
2022-11-18T09:57:03.024Z,1003.71
2022-11-18T09:58:03.004Z,1003.74
2022-11-18T09:59:02.994Z,1003.73
2022-11-18T10:00:03.001Z,1003.69
2022-11-18T10:01:02.975Z,1003.76
2022-11-18T10:02:03.045Z,1003.74
2022-11-18T10:03:02.983Z,1003.74
2022-11-18T10:04:02.939Z,1003.77
2022-11-18T10:05:02.927Z,1003.76
2022-11-18T10:06:02.931Z,1003.78
2022-11-18T10:07:02.929Z,1003.77
2022-11-18T10:08:02.899Z,1003.81
2022-11-18T10:09:02.881Z,1003.74
2022-11-18T10:10:02.874Z,1003.79
2022-11-18T10:11:02.864Z,1003.86
2022-11-18T10:12:02.847Z,1003.78
2022-11-18T10:13:02.837Z,1003.83
2022-11-18T10:14:02.833Z,1003.79
2022-11-18T10:15:02.816Z,1003.75
2022-11-18T10:16:02.912Z,1003.83
2022-11-18T10:17:02.797Z,1003.77
2022-11-18T10:18:02.786Z,1003.79
2022-11-18T10:19:02.773Z,1003.83
2022-11-18T10:20:02.768Z,1003.79
2022-11-18T10:21:02.748Z,1003.89
2022-11-18T10:22:02.737Z,1003.86
2022-11-18T10:23:02.725Z,1003.89
2022-11-18T10:24:02.712Z,1003.78
2022-11-18T10:25:02.712Z,1003.79
2022-11-18T10:26:02.697Z,1003.78
2022-11-18T10:27:02.683Z,1003.82
2022-11-18T10:28:02.667Z,1003.86
2022-11-18T10:29:02.666Z,1003.82
2022-11-18T10:30:02.648Z,1003.83
2022-11-18T10:31:02.636Z,1003.89
2022-11-18T10:32:04.346Z,1003.91
2022-11-18T10:33:02.617Z,1003.93
2022-11-18T10:34:02.607Z,1003.86
2022-11-18T10:35:02.594Z,1003.88
2022-11-18T10:36:02.580Z,1003.88
2022-11-18T10:37:02.568Z,1003.90
2022-11-18T10:38:09.685Z,1003.94
2022-11-18T10:39:03.545Z,1003.96
2022-11-18T10:40:02.535Z,1003.94
2022-11-18T10:41:02.523Z,1003.92
2022-11-18T10:42:02.514Z,1003.93
2022-11-18T10:43:02.500Z,1003.96
2022-11-18T10:44:02.500Z,1004.00
2022-11-18T10:45:02.480Z,1004.01
2022-11-18T10:46:02.468Z,1004.02
2022-11-18T10:47:02.457Z,1003.97
2022-11-18T10:48:02.495Z,1004.05
2022-11-18T10:49:02.435Z,1004.01
2022-11-18T10:50:02.430Z,1004.02
2022-11-18T10:51:02.411Z,1004.04
2022-11-18T10:52:02.402Z,1004.04
2022-11-18T10:53:02.389Z,1004.02
2022-11-18T10:54:02.381Z,1004.05
2022-11-18T10:55:02.367Z,1003.99
2022-11-18T10:56:02.367Z,1004.02
2022-11-18T10:57:02.345Z,1004.03
2022-11-18T10:58:02.335Z,1004.04
2022-11-18T10:59:02.323Z,1004.06
2022-11-18T11:00:02.357Z,1004.05
2022-11-18T11:01:02.300Z,1004.10
2022-11-18T11:02:08.370Z,1004.11
2022-11-18T11:03:03.277Z,1004.09
2022-11-18T11:04:02.295Z,1004.11
2022-11-18T11:05:02.257Z,1004.28
2022-11-18T11:06:02.245Z,1004.22
2022-11-18T11:07:02.278Z,1004.14
2022-11-18T11:08:28.913Z,1004.27
2022-11-18T11:09:03.211Z,1004.18
2022-11-18T11:10:02.199Z,1004.20
2022-11-18T11:11:02.192Z,1004.18
2022-11-18T11:12:02.179Z,1004.10
2022-11-18T11:13:02.166Z,1004.28
2022-11-18T11:14:02.163Z,1004.14
2022-11-18T11:15:02.144Z,1004.11
2022-11-18T11:16:02.133Z,1004.14
2022-11-18T11:17:02.146Z,1004.09
2022-11-18T11:18:02.110Z,1004.12
2022-11-18T11:19:02.105Z,1004.11
2022-11-18T11:20:02.113Z,1004.12
2022-11-18T11:21:02.077Z,1004.21
2022-11-18T11:22:02.066Z,1004.20
2022-11-18T11:23:02.058Z,1004.20
2022-11-18T11:24:02.049Z,1004.15
2022-11-18T11:25:02.032Z,1004.13
2022-11-18T11:28:18.434Z,1004.21
2022-11-18T11:29:02.986Z,1004.12
2022-11-18T11:30:01.976Z,1004.13
2022-11-18T11:31:01.963Z,1004.11
2022-11-18T11:32:01.988Z,1004.16
2022-11-18T11:33:01.942Z,1004.16
2022-11-18T11:34:01.950Z,1004.17
2022-11-18T11:35:01.922Z,1004.13
2022-11-18T11:36:01.938Z,1004.14
2022-11-18T11:37:01.900Z,1004.18
2022-11-18T11:38:01.915Z,1004.18
2022-11-18T11:39:15.935Z,1004.14
2022-11-18T11:40:02.862Z,1004.20
2022-11-18T11:41:01.853Z,1004.13
2022-11-18T11:42:01.843Z,1004.18
2022-11-18T11:43:01.830Z,1004.19
2022-11-18T11:44:01.830Z,1004.15
2022-11-18T11:45:01.809Z,1004.20
2022-11-18T11:46:01.841Z,1004.23
2022-11-18T11:47:01.785Z,1004.09
2022-11-18T11:48:01.777Z,1004.19
2022-11-18T11:49:01.766Z,1004.22
2022-11-18T11:50:01.772Z,1004.18
2022-11-18T11:51:04.770Z,1004.25
2022-11-18T11:52:01.747Z,1004.22
2022-11-18T11:53:01.720Z,1004.17
2022-11-18T11:54:01.712Z,1004.22
2022-11-18T11:55:01.699Z,1004.23
2022-11-18T11:56:01.693Z,1004.20
2022-11-18T11:57:01.675Z,1004.21
2022-11-18T11:58:01.666Z,1004.25
2022-11-18T11:59:01.652Z,1004.28
2022-11-18T12:00:01.642Z,1004.29
2022-11-18T12:01:01.631Z,1004.27
2022-11-18T12:02:01.625Z,1004.29
2022-11-18T12:03:01.688Z,1004.34
2022-11-18T12:04:01.596Z,1004.40
2022-11-18T12:05:01.587Z,1004.36
2022-11-18T12:06:01.573Z,1004.38
2022-11-18T12:07:01.642Z,1004.44
2022-11-18T12:08:01.588Z,1004.37
2022-11-18T12:09:01.541Z,1004.42
2022-11-18T12:10:01.530Z,1004.45
2022-11-18T12:11:01.518Z,1004.43
2022-11-18T12:12:01.508Z,1004.39
2022-11-18T12:13:01.496Z,1004.42
2022-11-18T12:14:01.490Z,1004.41
2022-11-18T12:15:01.474Z,1004.43
2022-11-18T12:16:01.464Z,1004.43